Time,TemperatureF,DewpointF,PressureIn,WindDirection,WindDirectionDegrees,WindSpeedMPH,WindSpeedGustMPH,Humidity,HourlyPrecipIn,Conditions,Clouds,dailyrainin,SoftwareType,DateUTC
2013-12-07 00:02:00,69.6,66.9,30.08,SW,230,11.0,11.0,91,0.00,,,0.01,Wunderground v.1.15,2013-12-07 05:02:00,
2013-12-07 00:32:00,69.6,67.2,30.08,WSW,244,11.0,11.0,92,0.00,,,0.00,Wunderground v.1.15,2013-12-07 05:32:00,
2013-12-07 01:02:00,69.4,67.6,30.07,SW,229,12.0,15.0,94,0.00,,,0.00,Wunderground v.1.15,2013-12-07 06:02:00,
2013-12-07 01:32:00,67.3,66.1,30.06,SW,228,11.0,13.0,96,0.00,,,0.00,Wunderground v.1.15,2013-12-07 06:32:00,
2013-12-07 02:02:00,68.6,66.8,30.05,SSW,209,10.0,10.0,94,0.00,,,0.00,Wunderground v.1.15,2013-12-07 07:02:00,
2013-12-07 02:32:00,69.5,66.8,30.05,SSW,205,10.0,12.0,91,0.00,,,0.00,Wunderground v.1.15,2013-12-07 07:32:00,
2013-12-07 03:02:00,69.7,66.6,30.05,WSW,245,12.0,14.0,90,0.00,,,0.00,Wunderground v.1.15,2013-12-07 08:02:00,
2013-12-07 03:32:00,69.9,67.5,30.06,WSW,244,13.0,13.0,92,0.00,,,0.00,Wunderground v.1.15,2013-12-07 08:32:00,
2013-12-07 04:02:00,70.6,68.5,30.06,SW,227,11.0,14.0,93,0.00,,,0.00,Wunderground v.1.15,2013-12-07 09:02:00,
2013-12-07 04:32:00,70.5,68.7,30.06,WSW,244,10.0,10.0,94,0.00,,,0.00,Wunderground v.1.15,2013-12-07 09:32:00,
2013-12-07 05:02:00,70.2,68.4,30.06,WSW,242,10.0,10.0,94,0.00,,,0.00,Wunderground v.1.15,2013-12-07 10:02:00,
2013-12-07 05:32:00,70.3,68.5,30.07,SW,232,10.0,13.0,94,0.00,,,0.00,Wunderground v.1.15,2013-12-07 10:32:00,
2013-12-07 06:02:00,70.0,68.2,30.07,SW,233,10.0,10.0,94,0.00,,,0.00,Wunderground v.1.15,2013-12-07 11:02:00,
2013-12-07 06:31:00,69.8,68.3,30.08,WSW,247,9.0,9.0,95,0.00,,,0.00,Wunderground v.1.15,2013-12-07 11:31:00,
2013-12-07 07:01:00,69.7,68.2,30.09,SW,233,8.0,8.0,95,0.00,,,0.00,Wunderground v.1.15,2013-12-07 12:01:00,
2013-12-07 07:31:00,69.2,67.7,30.09,WSW,237,7.0,7.0,95,0.00,,,0.00,Wunderground v.1.15,2013-12-07 12:31:00,
2013-12-07 08:01:00,69.1,67.6,30.11,West,267,9.0,9.0,95,0.00,,,0.00,Wunderground v.1.15,2013-12-07 13:01:00,
2013-12-07 08:31:00,69.7,67.3,30.11,WSW,243,6.0,14.0,92,0.00,,,0.00,Wunderground v.1.15,2013-12-07 13:31:00,
2013-12-07 09:01:00,70.2,67.1,30.13,SW,227,6.0,6.0,90,0.00,,,0.00,Wunderground v.1.15,2013-12-07 14:01:00,
2013-12-07 09:31:00,61.4,56.5,30.17,NNW,340,7.0,7.0,84,0.00,,,0.00,Wunderground v.1.15,2013-12-07 14:31:00,
2013-12-07 10:01:00,53.6,52.2,30.20,NE,38,13.0,14.0,95,0.00,,,0.00,Wunderground v.1.15,2013-12-07 15:01:00,
2013-12-07 10:31:00,51.9,50.5,30.23,NNE,32,16.0,16.0,95,0.00,,,0.00,Wunderground v.1.15,2013-12-07 15:31:00,
2013-12-07 11:01:00,48.5,46.9,30.22,NNE,12,15.0,15.0,94,0.00,,,0.00,Wunderground v.1.15,2013-12-07 16:01:00,
2013-12-07 11:31:00,47.0,44.8,30.23,NE,52,14.0,14.0,92,0.00,,,0.01,Wunderground v.1.15,2013-12-07 16:31:00,
2013-12-07 12:01:00,46.7,45.3,30.23,NE,43,12.0,12.0,95,0.00,,,0.04,Wunderground v.1.15,2013-12-07 17:01:00,
2013-12-07 12:31:00,47.1,45.5,30.22,NE,48,16.0,17.0,94,0.00,,,0.04,Wunderground v.1.15,2013-12-07 17:31:00,
2013-12-07 13:01:00,46.8,45.2,30.22,NNE,33,12.0,12.0,94,0.00,,,0.05,Wunderground v.1.15,2013-12-07 18:01:00,
2013-12-07 13:31:00,46.7,45.1,30.22,NE,38,11.0,13.0,94,0.00,,,0.05,Wunderground v.1.15,2013-12-07 18:31:00,
2013-12-07 14:01:00,46.6,45.5,30.23,NE,50,10.0,13.0,96,0.00,,,0.07,Wunderground v.1.15,2013-12-07 19:01:00,
2013-12-07 14:31:00,46.7,45.6,30.25,NE,38,11.0,16.0,96,0.00,,,0.07,Wunderground v.1.15,2013-12-07 19:31:00,
2013-12-07 15:01:00,47.6,46.2,30.24,ENE,58,16.0,22.0,95,0.00,,,0.07,Wunderground v.1.15,2013-12-07 20:01:00,
2013-12-07 15:31:00,46.8,45.2,30.25,NE,42,15.0,15.0,94,0.00,,,0.07,Wunderground v.1.15,2013-12-07 20:31:00,
2013-12-07 16:01:00,47.5,45.9,30.26,NE,40,17.0,19.0,94,0.00,,,0.07,Wunderground v.1.15,2013-12-07 21:01:00,
2013-12-07 16:31:00,47.2,45.0,30.27,NE,47,17.0,17.0,92,0.00,,,0.07,Wunderground v.1.15,2013-12-07 21:31:00,
2013-12-07 17:01:00,47.1,45.5,30.29,NE,46,14.0,14.0,94,0.00,,,0.07,Wunderground v.1.15,2013-12-07 22:01:00,
2013-12-07 17:31:00,47.3,45.1,30.29,NE,42,18.0,18.0,92,0.00,,,0.07,Wunderground v.1.15,2013-12-07 22:31:00,
2013-12-07 18:01:00,47.1,44.3,30.31,NNE,32,18.0,20.0,90,0.00,,,0.07,Wunderground v.1.15,2013-12-07 23:01:00,
2013-12-07 18:31:00,46.5,44.9,30.32,NE,43,19.0,19.0,94,0.00,,,0.07,Wunderground v.1.15,2013-12-07 23:31:00,
2013-12-07 19:01:00,46.4,44.2,30.33,NE,40,20.0,20.0,92,0.00,,,0.07,Wunderground v.1.15,2013-12-08 00:01:00,
2013-12-07 19:31:00,46.4,43.6,30.34,NE,49,16.0,19.0,90,0.00,,,0.07,Wunderground v.1.15,2013-12-08 00:31:00,
2013-12-07 20:01:00,46.6,44.4,30.34,NE,49,16.0,16.0,92,0.00,,,0.07,Wunderground v.1.15,2013-12-08 01:01:00,
2013-12-07 20:31:00,45.8,43.6,30.35,NE,46,16.0,16.0,92,0.00,,,0.07,Wunderground v.1.15,2013-12-08 01:31:00,
2013-12-07 21:01:00,45.6,43.7,30.36,NE,48,13.0,13.0,93,0.19,,,0.10,Wunderground v.1.15,2013-12-08 02:01:00,
2013-12-07 21:31:00,44.9,43.6,30.36,NE,43,11.0,17.0,95,0.04,,,0.18,Wunderground v.1.15,2013-12-08 02:31:00,
2013-12-07 22:01:00,45.7,43.5,30.37,NNE,33,16.0,16.0,92,0.04,,,0.20,Wunderground v.1.15,2013-12-08 03:01:00,
2013-12-07 22:31:00,45.5,43.6,30.37,NNE,17,16.0,17.0,93,0.07,,,0.28,Wunderground v.1.15,2013-12-08 03:31:00,
2013-12-07 23:01:00,45.3,43.4,30.37,ENE,59,15.0,15.0,93,0.08,,,0.31,Wunderground v.1.15,2013-12-08 04:01:00,
2013-12-07 23:31:00,45.3,43.7,30.37,NNE,14,14.0,14.0,94,0.11,,,0.42,Wunderground v.1.15,2013-12-08 04:31:00,